createdAt,value
2018-03-18T00:00:44.007Z,28.83
2018-03-18T00:03:11.729Z,28.73
2018-03-18T00:05:40.182Z,28.87
2018-03-18T00:08:07.839Z,27.53
2018-03-18T00:10:35.530Z,27.67
2018-03-18T00:13:03.995Z,28.50
2018-03-18T00:15:32.436Z,29.10
2018-03-18T00:18:00.160Z,29.67
2018-03-18T00:20:27.860Z,29.07
2018-03-18T00:22:55.552Z,28.00
2018-03-18T00:25:23.212Z,26.90
2018-03-18T00:27:50.904Z,28.00
2018-03-18T00:30:18.932Z,27.27
2018-03-18T00:32:46.612Z,27.47
2018-03-18T00:35:15.056Z,26.70
2018-03-18T00:37:42.737Z,27.63
2018-03-18T00:40:10.434Z,27.07
2018-03-18T00:42:38.161Z,28.00
2018-03-18T00:45:05.854Z,29.07
2018-03-18T00:47:33.619Z,27.03
2018-03-18T00:50:02.045Z,27.93
2018-03-18T00:52:30.525Z,25.27
2018-03-18T00:54:58.251Z,26.27
2018-03-18T00:57:25.933Z,26.47
2018-03-18T00:59:53.574Z,25.57
2018-03-18T01:02:21.290Z,25.37
2018-03-18T01:04:48.980Z,26.77
2018-03-18T01:07:16.738Z,25.60
2018-03-18T01:09:44.421Z,28.80
2018-03-18T01:12:12.171Z,26.90
2018-03-18T01:14:39.824Z,25.90
2018-03-18T01:17:07.536Z,24.03
2018-03-18T01:19:35.260Z,23.67
2018-03-18T01:22:02.927Z,23.90
2018-03-18T01:24:30.627Z,22.83
2018-03-18T01:26:58.384Z,25.17
2018-03-18T01:29:26.048Z,23.70
2018-03-18T01:31:53.785Z,25.53
2018-03-18T01:34:21.534Z,22.50
2018-03-18T01:36:49.981Z,24.80
2018-03-18T01:39:18.460Z,24.30
2018-03-18T01:41:46.937Z,23.50
2018-03-18T01:44:15.348Z,22.90
2018-03-18T01:46:43.019Z,24.57
2018-03-18T01:49:10.728Z,24.30
2018-03-18T01:51:39.131Z,24.13
2018-03-18T01:54:06.827Z,24.10
2018-03-18T01:56:34.500Z,22.60
2018-03-18T01:59:02.158Z,22.73
2018-03-18T02:01:29.852Z,22.97
2018-03-18T02:03:58.308Z,23.33
2018-03-18T02:06:25.983Z,22.70
2018-03-18T02:08:53.682Z,24.27
2018-03-18T02:11:21.380Z,23.20
2018-03-18T02:13:49.043Z,22.47
2018-03-18T02:16:16.710Z,22.53
2018-03-18T02:18:44.384Z,23.80
2018-03-18T02:21:12.048Z,23.13
2018-03-18T02:23:39.743Z,23.23
2018-03-18T02:26:07.432Z,24.10
2018-03-18T02:28:35.099Z,24.00
2018-03-18T02:31:02.807Z,22.67
2018-03-18T02:33:31.247Z,22.43
2018-03-18T02:35:58.910Z,23.77
2018-03-18T02:38:26.586Z,24.20
2018-03-18T02:40:57.891Z,24.27
2018-03-18T02:43:27.049Z,25.63
2018-03-18T02:45:57.852Z,26.43
2018-03-18T02:48:25.833Z,25.37
2018-03-18T02:50:53.577Z,25.47
2018-03-18T02:53:22.452Z,25.90
2018-03-18T02:55:56.023Z,24.43
2018-03-18T02:58:26.005Z,27.87
2018-03-18T03:00:57.831Z,26.90
2018-03-18T03:03:32.315Z,27.80
2018-03-18T03:06:09.843Z,28.33
2018-03-18T03:08:39.274Z,24.87
2018-03-18T03:11:08.752Z,29.10
2018-03-18T03:13:41.118Z,27.57
2018-03-18T03:16:15.653Z,27.60
2018-03-18T03:18:47.456Z,26.87
2018-03-18T03:21:16.808Z,28.30
2018-03-18T03:23:49.172Z,28.27
2018-03-18T03:26:24.764Z,26.30
2018-03-18T03:28:56.671Z,29.63
2018-03-18T03:31:27.145Z,28.23
2018-03-18T03:33:55.200Z,28.47
2018-03-18T03:36:28.844Z,27.87
2018-03-18T03:38:56.935Z,26.80
2018-03-18T03:41:27.252Z,27.07
2018-03-18T03:43:56.101Z,29.23
2018-03-18T03:46:27.031Z,29.43
2018-03-18T03:49:18.031Z,28.03
2018-03-18T03:52:10.390Z,27.90
2018-03-18T03:57:33.517Z,27.27
2018-03-18T04:00:17.235Z,29.30
2018-03-18T04:02:46.043Z,26.53
2018-03-18T04:05:13.703Z,28.40
2018-03-18T04:07:41.355Z,28.50
2018-03-18T04:10:09.047Z,28.50
2018-03-18T04:12:37.520Z,27.97
2018-03-18T04:15:05.975Z,28.67
2018-03-18T04:17:33.656Z,28.53
2018-03-18T04:20:02.117Z,29.17
2018-03-18T04:22:29.806Z,27.73
2018-03-18T04:24:58.267Z,30.40
2018-03-18T04:27:25.960Z,27.63
2018-03-18T04:29:53.645Z,29.93
2018-03-18T04:32:21.335Z,29.33
2018-03-18T04:34:49.028Z,29.57
2018-03-18T04:37:17.432Z,26.90
2018-03-18T04:39:45.158Z,26.60
2018-03-18T04:42:13.609Z,28.80
2018-03-18T04:44:41.260Z,26.30
2018-03-18T04:47:08.952Z,26.03
2018-03-18T04:49:36.628Z,25.70
2018-03-18T04:52:05.125Z,25.13
2018-03-18T04:54:32.824Z,27.30
2018-03-18T04:57:00.513Z,26.70
2018-03-18T04:59:28.176Z,26.20
2018-03-18T05:01:55.893Z,25.33
2018-03-18T05:04:23.584Z,25.67
2018-03-18T05:06:51.214Z,23.60
2018-03-18T05:09:19.000Z,26.77
2018-03-18T05:11:46.669Z,25.07
2018-03-18T05:14:14.336Z,23.63
2018-03-18T05:16:42.033Z,24.50
2018-03-18T05:19:09.735Z,24.60
2018-03-18T05:21:37.435Z,23.30
2018-03-18T05:24:05.202Z,24.47
2018-03-18T05:26:33.635Z,25.07
2018-03-18T05:29:01.276Z,23.30
2018-03-18T05:31:28.999Z,23.90
2018-03-18T05:33:57.470Z,24.93
2018-03-18T05:36:25.108Z,23.60
2018-03-18T05:38:52.882Z,23.73
2018-03-18T05:41:20.574Z,22.80
2018-03-18T05:43:48.211Z,24.10
2018-03-18T05:46:16.671Z,24.97
2018-03-18T05:48:44.353Z,23.87
2018-03-18T05:51:12.801Z,22.60
2018-03-18T05:53:40.488Z,22.47
2018-03-18T05:56:08.160Z,23.47
2018-03-18T05:58:36.583Z,22.80
2018-03-18T06:01:04.271Z,23.27
2018-03-18T06:03:31.966Z,22.60
2018-03-18T06:06:00.393Z,25.33
2018-03-18T06:08:28.090Z,21.70
2018-03-18T06:10:55.759Z,23.13
2018-03-18T06:13:23.404Z,21.23
2018-03-18T06:15:51.091Z,21.20
2018-03-18T06:18:18.771Z,21.80
2018-03-18T06:20:46.445Z,21.30
2018-03-18T06:23:14.144Z,20.53
2018-03-18T06:25:42.493Z,19.77
2018-03-18T06:28:10.842Z,18.73
2018-03-18T06:30:38.559Z,20.33
2018-03-18T06:33:06.248Z,21.20
2018-03-18T06:35:34.565Z,21.87
2018-03-18T06:38:02.244Z,18.70
2018-03-18T06:40:29.966Z,19.63
2018-03-18T06:42:57.648Z,20.37
2018-03-18T06:45:25.402Z,21.93
2018-03-18T06:47:53.108Z,20.10
2018-03-18T06:50:20.785Z,21.30
2018-03-18T06:52:48.475Z,18.27
2018-03-18T06:55:16.271Z,19.87
2018-03-18T06:57:44.360Z,20.03
2018-03-18T07:00:12.819Z,18.83
2018-03-18T07:02:40.499Z,19.63
2018-03-18T07:05:08.140Z,20.27
2018-03-18T07:07:35.809Z,20.13
2018-03-18T07:10:03.578Z,18.43
2018-03-18T07:12:31.301Z,19.57
2018-03-18T07:14:58.999Z,20.00
2018-03-18T07:17:26.682Z,18.60
2018-03-18T07:19:54.340Z,20.00
2018-03-18T07:22:22.008Z,19.13
2018-03-18T07:24:50.468Z,18.70
2018-03-18T07:27:18.928Z,19.00
2018-03-18T07:29:46.607Z,18.60
2018-03-18T07:32:15.087Z,19.00
2018-03-18T07:34:42.745Z,18.37
2018-03-18T07:37:10.487Z,18.83
2018-03-18T07:39:38.212Z,18.30
2018-03-18T07:42:06.148Z,18.33
2018-03-18T07:44:33.870Z,18.23
2018-03-18T07:47:01.572Z,18.80
2018-03-18T07:49:29.216Z,18.60
2018-03-18T07:51:56.920Z,16.57
2018-03-18T07:54:24.621Z,20.10
2018-03-18T07:56:52.309Z,17.30
2018-03-18T07:59:20.090Z,18.33
2018-03-18T08:01:47.811Z,20.10
2018-03-18T08:04:15.488Z,18.40
2018-03-18T08:06:43.170Z,17.90
2018-03-18T08:09:11.643Z,18.43
2018-03-18T08:11:40.052Z,16.40
2018-03-18T08:14:07.736Z,18.67
2018-03-18T08:16:35.439Z,20.03
2018-03-18T08:19:03.876Z,19.00
2018-03-18T08:21:31.661Z,18.77
2018-03-18T08:23:59.375Z,18.33
2018-03-18T08:26:27.038Z,19.50
2018-03-18T08:28:54.716Z,21.00
2018-03-18T08:31:22.430Z,21.20
2018-03-18T08:33:50.896Z,19.60
2018-03-18T08:36:19.486Z,19.90
2018-03-18T08:38:47.944Z,17.67
2018-03-18T08:41:15.591Z,19.70
2018-03-18T08:43:43.280Z,17.93
2018-03-18T08:46:11.785Z,18.37
2018-03-18T08:48:39.450Z,20.20
2018-03-18T08:51:07.172Z,19.20
2018-03-18T08:53:36.749Z,19.13
2018-03-18T08:56:10.191Z,17.43
2018-03-18T08:58:41.734Z,19.53
2018-03-18T09:01:10.364Z,18.07
2018-03-18T09:03:38.091Z,19.03
2018-03-18T09:06:08.758Z,19.90
2018-03-18T09:08:36.452Z,20.27
2018-03-18T09:11:04.151Z,21.17
2018-03-18T09:13:31.816Z,19.40
2018-03-18T09:15:59.479Z,20.70
2018-03-18T09:18:27.246Z,18.73
2018-03-18T09:20:54.891Z,18.30
2018-03-18T09:23:24.533Z,19.60
2018-03-18T09:25:52.236Z,20.40
2018-03-18T09:28:19.912Z,18.53
2018-03-18T09:30:49.310Z,18.30
2018-03-18T09:33:17.792Z,16.20
2018-03-18T09:35:46.243Z,19.37
2018-03-18T09:38:13.960Z,18.60
2018-03-18T09:40:41.711Z,20.30
2018-03-18T09:43:09.444Z,18.50
2018-03-18T09:45:37.904Z,19.13
2018-03-18T09:48:05.562Z,19.50
2018-03-18T09:50:33.271Z,18.27
2018-03-18T09:53:00.965Z,17.80
2018-03-18T09:55:28.614Z,17.50
2018-03-18T09:57:56.325Z,17.70
2018-03-18T10:00:24.040Z,17.50
2018-03-18T10:02:51.714Z,18.90
2018-03-18T10:05:19.476Z,18.40
2018-03-18T10:07:47.156Z,18.23
2018-03-18T10:10:14.860Z,18.80
2018-03-18T10:12:42.567Z,18.50
2018-03-18T10:15:10.264Z,18.57
2018-03-18T10:17:37.917Z,16.97
2018-03-18T10:20:06.448Z,17.57
2018-03-18T10:22:34.128Z,17.20
2018-03-18T10:25:01.792Z,17.30
2018-03-18T10:27:29.529Z,17.23
2018-03-18T10:29:57.203Z,15.87
2018-03-18T10:32:24.887Z,16.13
2018-03-18T10:34:52.653Z,16.77
2018-03-18T10:37:20.314Z,15.50
2018-03-18T10:39:47.982Z,15.80
2018-03-18T10:42:16.436Z,17.13
2018-03-18T10:44:44.104Z,17.43
2018-03-18T10:47:11.853Z,16.90
2018-03-18T10:49:40.279Z,16.80
2018-03-18T10:52:07.951Z,18.47
2018-03-18T10:54:35.636Z,18.60
2018-03-18T10:57:03.334Z,17.73
2018-03-18T10:59:31.008Z,17.47
2018-03-18T11:02:04.977Z,17.27
2018-03-18T11:04:32.690Z,17.73
2018-03-18T11:07:00.348Z,16.90
2018-03-18T11:09:28.799Z,18.00
2018-03-18T11:11:56.545Z,16.73
2018-03-18T11:14:24.246Z,17.20
2018-03-18T11:16:52.696Z,16.77
2018-03-18T11:19:20.444Z,16.43
2018-03-18T11:21:48.139Z,15.60
2018-03-18T11:24:16.664Z,15.27
2018-03-18T11:26:44.392Z,19.20
2018-03-18T11:29:12.818Z,17.07
2018-03-18T11:31:40.512Z,18.20
2018-03-18T11:34:08.302Z,20.60
2018-03-18T11:36:36.744Z,19.03
2018-03-18T11:39:04.540Z,17.50
2018-03-18T11:41:32.984Z,17.53
2018-03-18T11:44:00.679Z,17.30
2018-03-18T11:46:29.132Z,18.17
2018-03-18T11:48:56.851Z,17.90
2018-03-18T11:51:24.561Z,17.70
2018-03-18T11:53:52.291Z,17.50
2018-03-18T11:56:20.058Z,18.40
2018-03-18T11:58:47.685Z,17.33
2018-03-18T12:01:15.396Z,18.30
2018-03-18T12:03:43.064Z,17.00
2018-03-18T12:06:10.754Z,16.07
2018-03-18T12:08:50.014Z,16.70
2018-03-18T12:11:18.514Z,17.40
2018-03-18T12:13:46.186Z,16.67
2018-03-18T12:16:13.896Z,18.13
2018-03-18T12:18:41.718Z,17.30
2018-03-18T12:21:09.417Z,16.43
2018-03-18T12:23:37.109Z,16.77
2018-03-18T12:26:04.848Z,17.03
2018-03-18T12:28:32.499Z,17.30
2018-03-18T12:31:00.241Z,18.83
2018-03-18T12:33:28.683Z,18.30
2018-03-18T12:35:56.340Z,18.20
2018-03-18T12:38:24.032Z,18.00
2018-03-18T12:40:52.660Z,19.00
2018-03-18T12:43:31.240Z,17.80
2018-03-18T12:45:59.691Z,17.13
2018-03-18T12:48:27.437Z,17.20
2018-03-18T12:50:55.137Z,16.77
2018-03-18T12:53:23.644Z,18.10
2018-03-18T12:55:51.298Z,17.50
2018-03-18T12:58:19.008Z,16.87
2018-03-18T13:00:46.829Z,17.77
2018-03-18T13:03:14.492Z,16.00
2018-03-18T13:05:42.271Z,17.40
2018-03-18T13:08:09.972Z,16.80
2018-03-18T13:10:37.640Z,18.13
2018-03-18T13:13:05.381Z,15.77
2018-03-18T13:15:33.084Z,19.17
2018-03-18T13:18:01.508Z,17.23
2018-03-18T13:20:29.274Z,17.77
2018-03-18T13:22:56.987Z,17.60
2018-03-18T13:25:25.537Z,17.27
2018-03-18T13:27:53.335Z,17.63
2018-03-18T13:30:21.086Z,16.33
2018-03-18T13:32:48.743Z,18.00
2018-03-18T13:35:16.498Z,17.93
2018-03-18T13:37:44.944Z,16.60
2018-03-18T13:40:12.620Z,15.47
2018-03-18T13:42:40.428Z,16.13
2018-03-18T13:45:08.139Z,17.60
2018-03-18T13:47:35.922Z,14.63
2018-03-18T13:50:03.692Z,16.03
2018-03-18T13:52:32.220Z,17.50
2018-03-18T13:54:59.883Z,17.60
2018-03-18T13:57:27.675Z,16.87
2018-03-18T13:59:55.364Z,17.20
2018-03-18T14:02:23.004Z,17.57
2018-03-18T14:04:50.913Z,17.97
2018-03-18T14:07:18.730Z,18.70
2018-03-18T14:09:46.448Z,17.60
2018-03-18T14:12:14.440Z,16.77
2018-03-18T14:14:42.538Z,16.73
2018-03-18T14:17:10.279Z,18.07
2018-03-18T14:19:38.243Z,16.97
2018-03-18T14:22:06.125Z,17.33
2018-03-18T14:24:34.928Z,16.10
2018-03-18T14:27:03.005Z,18.33
2018-03-18T14:29:32.517Z,15.70
2018-03-18T14:32:00.945Z,18.07
2018-03-18T14:34:28.705Z,17.07
2018-03-18T14:36:57.181Z,16.37
2018-03-18T14:39:24.872Z,16.00
2018-03-18T14:41:53.524Z,17.83
2018-03-18T14:44:22.008Z,15.97
2018-03-18T14:46:49.692Z,16.13
2018-03-18T14:49:17.403Z,16.40
2018-03-18T14:51:45.090Z,18.23
2018-03-18T14:54:12.769Z,17.10
2018-03-18T14:56:40.480Z,17.30
2018-03-18T14:59:08.858Z,17.53
2018-03-18T15:01:36.571Z,16.73
2018-03-18T15:04:04.412Z,16.10
2018-03-18T15:06:32.973Z,16.67
2018-03-18T15:09:00.600Z,16.40
2018-03-18T15:11:29.903Z,16.70
2018-03-18T15:13:58.256Z,14.67
2018-03-18T15:16:27.994Z,15.93
2018-03-18T15:18:56.349Z,13.73
2018-03-18T15:21:25.473Z,16.07
2018-03-18T15:23:53.632Z,15.80
2018-03-18T15:26:24.957Z,14.83
2018-03-18T15:28:53.913Z,14.50
2018-03-18T15:31:23.502Z,16.13
2018-03-18T15:33:52.191Z,15.07
2018-03-18T15:36:20.568Z,15.30
2018-03-18T15:38:49.041Z,15.23
2018-03-18T15:41:17.282Z,15.70
2018-03-18T15:43:45.839Z,17.27
2018-03-18T15:46:13.525Z,16.17
2018-03-18T15:48:41.988Z,29.03
2018-03-18T15:51:09.688Z,25.60
2018-03-18T15:53:37.398Z,15.63
2018-03-18T15:56:05.215Z,15.03
2018-03-18T15:58:33.539Z,14.77
2018-03-18T16:01:01.577Z,26.20
2018-03-18T16:03:30.415Z,18.00
2018-03-18T16:05:58.736Z,14.97
2018-03-18T16:08:26.696Z,14.90
2018-03-18T16:10:55.085Z,18.10
2018-03-18T16:13:24.341Z,13.80
2018-03-18T16:15:53.274Z,15.27
2018-03-18T16:18:22.462Z,14.33
2018-03-18T16:20:50.947Z,15.00
2018-03-18T16:23:20.056Z,15.83
2018-03-18T16:25:48.143Z,15.90
2018-03-18T16:28:16.628Z,14.50
2018-03-18T16:30:56.931Z,16.10
2018-03-18T16:33:26.884Z,15.07
2018-03-18T16:35:54.730Z,15.00
2018-03-18T16:38:23.990Z,15.20
2018-03-18T16:40:52.026Z,16.43
2018-03-18T16:43:20.819Z,16.37
2018-03-18T16:45:49.388Z,42.90
2018-03-18T16:48:17.112Z,16.60
2018-03-18T16:50:46.244Z,15.00
2018-03-18T16:53:13.982Z,17.17
2018-03-18T16:55:41.681Z,15.10
2018-03-18T16:58:09.545Z,15.90
2018-03-18T17:00:38.338Z,16.60
2018-03-18T17:03:06.289Z,16.57
2018-03-18T17:05:34.113Z,15.90
2018-03-18T17:08:01.885Z,19.37
2018-03-18T17:10:30.446Z,15.50
2018-03-18T17:12:59.042Z,16.80
2018-03-18T17:15:27.505Z,16.77
2018-03-18T17:17:55.354Z,14.13
2018-03-18T17:20:23.104Z,14.47
2018-03-18T17:22:51.623Z,16.80
2018-03-18T17:25:19.617Z,14.87
2018-03-18T17:27:47.304Z,15.10
2018-03-18T17:30:15.097Z,13.87
2018-03-18T17:32:42.905Z,14.97
2018-03-18T17:35:10.687Z,15.10
2018-03-18T17:37:38.521Z,16.20
2018-03-18T17:40:06.444Z,14.30
2018-03-18T17:42:34.240Z,14.00
2018-03-18T17:45:13.793Z,14.20
2018-03-18T17:47:53.573Z,13.80
2018-03-18T17:50:33.401Z,13.93
2018-03-18T17:53:13.224Z,13.40
2018-03-18T17:55:41.134Z,17.20
2018-03-18T17:58:09.995Z,14.43
2018-03-18T18:00:38.701Z,15.50
2018-03-18T18:03:06.540Z,16.07
2018-03-18T18:05:34.399Z,15.37
2018-03-18T18:08:02.282Z,13.70
2018-03-18T18:10:31.766Z,13.77
2018-03-18T18:12:59.459Z,15.30
2018-03-18T18:15:28.394Z,13.77
2018-03-18T18:17:56.139Z,13.67
2018-03-18T18:20:24.648Z,15.60
2018-03-18T18:22:52.432Z,14.70
2018-03-18T18:25:21.148Z,13.63
2018-03-18T18:27:49.077Z,15.30
2018-03-18T18:30:17.011Z,13.83
2018-03-18T18:32:44.969Z,16.70
2018-03-18T18:35:12.830Z,17.30
2018-03-18T18:37:40.930Z,16.00
2018-03-18T18:40:08.812Z,15.17
2018-03-18T18:42:36.704Z,15.03
2018-03-18T18:45:06.011Z,15.20
2018-03-18T18:47:33.995Z,13.67
2018-03-18T18:50:01.922Z,15.10
2018-03-18T18:52:29.858Z,13.80
2018-03-18T18:54:57.803Z,15.40
2018-03-18T18:57:25.677Z,14.00
2018-03-18T18:59:53.555Z,13.67
2018-03-18T19:02:21.620Z,19.47
2018-03-18T19:04:49.388Z,15.63
2018-03-18T19:07:17.145Z,14.97
2018-03-18T19:09:45.081Z,14.90
2018-03-18T19:12:13.744Z,14.30
2018-03-18T19:14:41.641Z,16.43
2018-03-18T19:17:09.438Z,15.60
2018-03-18T19:19:37.124Z,14.60
2018-03-18T19:22:04.799Z,14.80
2018-03-18T19:24:32.695Z,14.00
2018-03-18T19:27:00.516Z,14.80
2018-03-18T19:29:28.247Z,14.03
2018-03-18T19:31:57.073Z,14.43
2018-03-18T19:34:25.796Z,15.07
2018-03-18T19:36:53.738Z,15.53
2018-03-18T19:39:21.534Z,15.23
2018-03-18T19:41:53.878Z,15.17
2018-03-18T19:44:23.178Z,14.50
2018-03-18T19:46:51.101Z,15.50
2018-03-18T19:49:23.334Z,16.40
2018-03-18T19:51:54.172Z,14.70
2018-03-18T19:54:38.784Z,15.77
2018-03-18T19:57:08.767Z,15.63
2018-03-18T19:59:38.579Z,15.13
2018-03-18T20:02:06.492Z,14.53
2018-03-18T20:04:39.578Z,15.40
2018-03-18T20:07:11.166Z,15.20
2018-03-18T20:09:41.441Z,15.70
2018-03-18T20:12:11.595Z,15.30
2018-03-18T20:14:41.709Z,16.57
2018-03-18T20:17:14.096Z,15.60
2018-03-18T20:19:46.084Z,16.50
2018-03-18T20:22:29.364Z,15.70
2018-03-18T20:24:59.222Z,14.13
2018-03-18T20:27:34.095Z,15.70
2018-03-18T20:30:12.632Z,15.83
2018-03-18T20:32:40.512Z,16.30
2018-03-18T20:35:08.192Z,14.57
2018-03-18T20:37:35.897Z,16.07
2018-03-18T20:40:04.530Z,16.47
2018-03-18T20:42:32.237Z,16.60
2018-03-18T20:45:00.668Z,15.90
2018-03-18T20:47:28.439Z,14.40
2018-03-18T20:49:56.325Z,15.00
2018-03-18T20:52:24.911Z,15.33
2018-03-18T20:54:53.468Z,15.27
2018-03-18T20:57:21.276Z,15.63
2018-03-18T20:59:49.084Z,16.30
2018-03-18T21:02:16.865Z,16.07
2018-03-18T21:04:44.648Z,15.20
2018-03-18T21:07:12.337Z,15.37
2018-03-18T21:09:40.037Z,15.40
2018-03-18T21:12:07.761Z,17.30
2018-03-18T21:14:35.495Z,15.13
2018-03-18T21:17:04.001Z,15.97
2018-03-18T21:19:31.725Z,15.23
2018-03-18T21:21:59.512Z,16.27
2018-03-18T21:24:27.462Z,15.37
2018-03-18T21:26:56.014Z,15.50
2018-03-18T21:29:23.785Z,16.80
2018-03-18T21:31:51.736Z,15.47
2018-03-18T21:34:19.597Z,17.30
2018-03-18T21:36:47.348Z,14.93
2018-03-18T21:39:15.071Z,16.03
2018-03-18T21:41:42.800Z,16.50
2018-03-18T21:44:10.495Z,15.23
2018-03-18T21:46:39.476Z,15.97
2018-03-18T21:49:07.283Z,17.17
2018-03-18T21:51:35.014Z,17.50
2018-03-18T21:54:03.499Z,17.10
2018-03-18T21:56:32.946Z,16.47
2018-03-18T21:59:00.652Z,16.30
2018-03-18T22:01:29.136Z,16.20
2018-03-18T22:03:56.936Z,16.33
2018-03-18T22:06:24.955Z,16.07
2018-03-18T22:08:53.436Z,16.40
2018-03-18T22:11:21.906Z,17.07
2018-03-18T22:13:49.598Z,16.30
2018-03-18T22:16:17.335Z,17.27
2018-03-18T22:18:45.816Z,16.03
2018-03-18T22:21:14.324Z,18.67
2018-03-18T22:23:42.059Z,17.30
2018-03-18T22:26:10.544Z,17.73
2018-03-18T22:28:39.000Z,17.30
2018-03-18T22:31:06.704Z,17.20
2018-03-18T22:33:34.435Z,17.90
2018-03-18T22:36:02.883Z,18.03
2018-03-18T22:38:30.659Z,16.50
2018-03-18T22:40:58.477Z,16.97
2018-03-18T22:43:27.085Z,16.50
2018-03-18T22:45:54.929Z,18.00
2018-03-18T22:48:22.659Z,17.40
2018-03-18T22:50:51.083Z,17.97
2018-03-18T22:53:18.799Z,17.70
2018-03-18T22:55:47.279Z,17.40
2018-03-18T22:58:15.726Z,18.23
2018-03-18T23:00:43.420Z,18.00
2018-03-18T23:03:11.119Z,18.40
2018-03-18T23:05:38.797Z,18.27
2018-03-18T23:08:06.506Z,17.13
2018-03-18T23:10:34.220Z,17.93
2018-03-18T23:13:01.891Z,19.00
2018-03-18T23:15:29.639Z,18.47
2018-03-18T23:17:57.329Z,20.37
2018-03-18T23:20:25.696Z,19.30
2018-03-18T23:22:53.400Z,17.43
2018-03-18T23:25:21.086Z,17.70
2018-03-18T23:27:48.732Z,18.00
2018-03-18T23:30:16.455Z,18.27
2018-03-18T23:32:44.135Z,18.30
2018-03-18T23:35:11.828Z,18.93
2018-03-18T23:37:39.561Z,18.30
2018-03-18T23:40:07.339Z,17.90
2018-03-18T23:42:35.043Z,17.40
2018-03-18T23:45:02.732Z,17.50
2018-03-18T23:47:31.208Z,17.83
2018-03-18T23:49:59.646Z,19.87
2018-03-18T23:52:27.341Z,18.73
2018-03-18T23:54:55.004Z,17.50
2018-03-18T23:57:23.444Z,18.40
2018-03-18T23:59:51.148Z,17.70
